createdAt,value
2018-08-11T00:00:27.055Z,1.80
2018-08-11T00:02:55.452Z,1.60
2018-08-11T00:05:23.806Z,1.30
2018-08-11T00:07:52.258Z,1.50
2018-08-11T00:10:20.729Z,1.77
2018-08-11T00:12:49.025Z,1.80
2018-08-11T00:15:18.489Z,1.40
2018-08-11T00:17:46.892Z,1.70
2018-08-11T00:20:17.466Z,1.43
2018-08-11T00:22:45.575Z,1.60
2018-08-11T00:25:15.247Z,1.50
2018-08-11T00:27:43.397Z,1.60
2018-08-11T00:30:13.062Z,1.50
2018-08-11T00:32:41.195Z,1.67
2018-08-11T00:35:11.214Z,1.67
2018-08-11T00:37:40.937Z,1.47
2018-08-11T00:40:11.196Z,1.50
2018-08-11T00:42:39.431Z,1.40
2018-08-11T00:45:09.553Z,1.80
2018-08-11T00:47:37.712Z,1.57
2018-08-11T00:50:07.894Z,1.60
2018-08-11T00:52:36.012Z,1.60
2018-08-11T00:55:05.370Z,1.40
2018-08-11T00:57:33.524Z,1.67
2018-08-11T01:00:01.618Z,1.80
2018-08-11T01:02:29.911Z,1.50
2018-08-11T01:04:57.902Z,1.50
2018-08-11T01:07:26.068Z,1.90
2018-08-11T01:09:54.202Z,1.70
2018-08-11T01:12:22.314Z,1.70
2018-08-11T01:14:50.402Z,1.80
2018-08-11T01:17:18.516Z,1.80
2018-08-11T01:19:46.633Z,1.50
2018-08-11T01:22:14.767Z,1.87
2018-08-11T01:24:42.886Z,1.70
2018-08-11T01:27:11.054Z,1.80
2018-08-11T01:29:39.137Z,1.90
2018-08-11T01:32:07.393Z,1.90
2018-08-11T01:34:35.487Z,1.73
2018-08-11T01:37:04.054Z,1.70
2018-08-11T01:39:32.128Z,1.70
2018-08-11T01:42:00.235Z,2.00
2018-08-11T01:44:28.337Z,1.70
2018-08-11T01:46:56.437Z,1.90
2018-08-11T01:49:24.548Z,1.80
2018-08-11T01:51:52.648Z,1.93
2018-08-11T01:54:20.827Z,2.20
2018-08-11T01:56:48.921Z,1.80
2018-08-11T01:59:17.101Z,2.10
2018-08-11T02:01:45.233Z,2.00
2018-08-11T02:04:13.434Z,1.90
2018-08-11T02:06:41.624Z,1.93
2018-08-11T02:09:10.379Z,2.00
2018-08-11T02:11:38.649Z,1.80
2018-08-11T02:14:06.759Z,1.97
2018-08-11T02:16:34.887Z,1.83
2018-08-11T02:19:03.043Z,2.10
2018-08-11T02:21:31.118Z,2.00
2018-08-11T02:23:59.259Z,2.00
2018-08-11T02:26:27.323Z,2.30
2018-08-11T02:28:55.401Z,2.17
2018-08-11T02:31:23.557Z,2.00
2018-08-11T02:33:51.721Z,2.07
2018-08-11T02:36:20.088Z,2.00
2018-08-11T02:38:48.186Z,1.93
2018-08-11T02:41:16.265Z,2.27
2018-08-11T02:43:44.383Z,2.20
2018-08-11T02:46:12.455Z,2.17
2018-08-11T02:48:40.552Z,2.10
2018-08-11T02:51:08.678Z,2.27
2018-08-11T02:53:37.598Z,2.00
2018-08-11T02:56:06.088Z,2.20
2018-08-11T02:58:34.190Z,2.33
2018-08-11T03:01:02.269Z,2.10
2018-08-11T03:03:30.410Z,2.23
2018-08-11T03:05:58.610Z,2.30
2018-08-11T03:08:27.003Z,2.40
2018-08-11T03:10:55.706Z,2.10
2018-08-11T03:13:25.407Z,2.10
2018-08-11T03:15:53.498Z,2.20
2018-08-11T03:18:21.591Z,2.20
2018-08-11T03:20:49.715Z,2.30
2018-08-11T03:23:17.795Z,2.53
2018-08-11T03:25:45.912Z,2.30
2018-08-11T03:28:13.998Z,2.40
2018-08-11T03:30:42.161Z,2.30
2018-08-11T03:33:10.254Z,2.47
2018-08-11T03:35:38.331Z,2.20
2018-08-11T03:38:06.438Z,2.57
2018-08-11T03:40:34.560Z,2.63
2018-08-11T03:43:02.640Z,2.33
2018-08-11T03:45:30.804Z,2.40
2018-08-11T03:47:58.943Z,2.43
2018-08-11T03:50:27.046Z,2.10
2018-08-11T03:52:55.160Z,2.70
2018-08-11T03:55:23.268Z,2.50
2018-08-11T03:57:51.374Z,2.53
2018-08-11T04:00:19.534Z,2.57
2018-08-11T04:02:47.644Z,2.60
2018-08-11T04:05:15.757Z,2.73
2018-08-11T04:07:43.854Z,2.40
2018-08-11T04:10:11.979Z,2.27
2018-08-11T04:12:40.114Z,2.20
2018-08-11T04:15:08.478Z,2.00
2018-08-11T04:17:40.571Z,2.40
2018-08-11T04:20:10.319Z,2.17
2018-08-11T04:22:38.505Z,2.23
2018-08-11T04:25:07.396Z,2.23
2018-08-11T04:27:35.950Z,2.40
2018-08-11T04:30:04.798Z,2.10
2018-08-11T04:32:32.910Z,2.43
2018-08-11T04:35:01.012Z,2.50
2018-08-11T04:37:29.131Z,2.40
2018-08-11T04:39:57.249Z,2.50
2018-08-11T04:42:25.392Z,2.17
2018-08-11T04:44:53.543Z,1.83
2018-08-11T04:47:21.707Z,2.50
2018-08-11T04:51:14.119Z,2.10
2018-08-11T04:53:42.241Z,2.03
2018-08-11T04:56:10.391Z,2.00
2018-08-11T04:58:38.530Z,1.97
2018-08-11T05:01:06.635Z,1.90
2018-08-11T05:03:34.829Z,1.90
2018-08-11T05:06:03.039Z,2.00
2018-08-11T05:08:31.157Z,2.00
2018-08-11T05:10:59.328Z,2.00
2018-08-11T05:13:27.426Z,1.80
2018-08-11T05:15:55.602Z,1.70
2018-08-11T05:18:23.818Z,1.70
2018-08-11T05:20:51.918Z,2.00
2018-08-11T05:23:20.094Z,1.80
2018-08-11T05:25:48.182Z,1.70
2018-08-11T05:28:16.351Z,2.00
2018-08-11T05:30:44.511Z,2.10
2018-08-11T05:33:12.700Z,1.80
2018-08-11T05:35:40.787Z,1.77
2018-08-11T05:38:08.882Z,2.20
2018-08-11T05:40:37.012Z,1.60
2018-08-11T05:43:05.151Z,1.87
2018-08-11T05:45:33.268Z,2.00
2018-08-11T05:48:01.346Z,1.60
2018-08-11T05:50:29.507Z,2.00
2018-08-11T05:52:57.617Z,2.00
2018-08-11T05:55:25.766Z,1.80
2018-08-11T05:57:53.885Z,2.40
2018-08-11T06:00:22.025Z,2.10
2018-08-11T06:02:50.134Z,2.00
2018-08-11T06:05:18.233Z,2.13
2018-08-11T06:07:46.387Z,2.07
2018-08-11T06:10:14.562Z,1.90
2018-08-11T06:12:42.712Z,1.97
2018-08-11T06:15:10.824Z,2.13
2018-08-11T06:17:38.953Z,2.10
2018-08-11T06:20:08.319Z,1.93
2018-08-11T06:22:36.462Z,1.80
2018-08-11T06:25:06.238Z,1.83
2018-08-11T06:27:34.364Z,1.93
2018-08-11T06:30:02.482Z,1.90
2018-08-11T06:32:30.596Z,1.90
2018-08-11T06:34:58.705Z,2.57
2018-08-11T06:37:26.862Z,2.13
2018-08-11T06:39:54.988Z,2.10
2018-08-11T06:42:23.133Z,2.60
2018-08-11T06:44:51.274Z,2.30
2018-08-11T06:47:19.378Z,2.60
2018-08-11T06:49:47.520Z,2.40
2018-08-11T06:52:15.679Z,1.83
2018-08-11T06:54:43.825Z,2.03
2018-08-11T06:57:11.940Z,2.40
2018-08-11T06:59:40.070Z,2.70
2018-08-11T07:02:08.190Z,2.33
2018-08-11T07:04:36.400Z,2.30
2018-08-11T07:07:04.757Z,2.00
2018-08-11T07:09:32.906Z,2.10
2018-08-11T07:12:01.022Z,2.20
2018-08-11T07:14:29.137Z,1.90
2018-08-11T07:16:57.366Z,1.90
2018-08-11T07:19:25.785Z,1.90
2018-08-11T07:21:53.924Z,1.90
2018-08-11T07:24:22.151Z,2.13
2018-08-11T07:26:50.266Z,2.10
2018-08-11T07:29:18.389Z,1.90
2018-08-11T07:31:46.525Z,2.20
2018-08-11T07:34:14.670Z,1.87
2018-08-11T07:36:42.808Z,2.10
2018-08-11T07:39:14.963Z,2.07
2018-08-11T07:41:43.222Z,2.10
2018-08-11T07:44:11.366Z,2.30
2018-08-11T07:46:39.534Z,2.00
2018-08-11T07:49:07.839Z,2.23
2018-08-11T07:51:36.037Z,2.00
2018-08-11T07:54:04.186Z,2.20
2018-08-11T07:56:32.298Z,2.10
2018-08-11T07:59:00.414Z,2.00
2018-08-11T08:01:29.214Z,1.80
2018-08-11T08:03:57.178Z,1.90
2018-08-11T08:06:25.337Z,1.77
2018-08-11T08:08:53.418Z,1.90
2018-08-11T08:11:21.506Z,1.60
2018-08-11T08:13:49.635Z,1.73
2018-08-11T08:16:17.694Z,1.70
2018-08-11T08:18:45.869Z,1.93
2018-08-11T08:21:13.932Z,1.50
2018-08-11T08:23:42.038Z,1.50
2018-08-11T08:26:10.224Z,1.87
2018-08-11T08:28:38.294Z,1.60
2018-08-11T08:31:06.356Z,1.70
2018-08-11T08:33:34.445Z,1.50
2018-08-11T08:36:02.573Z,2.00
2018-08-11T08:38:31.457Z,1.67
2018-08-11T08:40:59.600Z,1.70
2018-08-11T08:43:27.838Z,1.53
2018-08-11T08:45:56.052Z,1.60
2018-08-11T08:48:24.441Z,1.40
2018-08-11T08:50:52.560Z,1.70
2018-08-11T08:53:20.682Z,1.67
2018-08-11T08:55:48.772Z,1.60
2018-08-11T08:58:16.919Z,1.50
2018-08-11T09:00:45.018Z,1.30
2018-08-11T09:03:13.147Z,1.53
2018-08-11T09:05:41.319Z,1.80
2018-08-11T09:08:09.392Z,1.80
2018-08-11T09:10:37.488Z,1.53
2018-08-11T09:13:06.148Z,1.60
2018-08-11T09:15:34.342Z,1.50
2018-08-11T09:18:02.444Z,1.73
2018-08-11T09:20:30.564Z,1.63
2018-08-11T09:22:58.635Z,1.80
2018-08-11T09:25:26.837Z,1.83
2018-08-11T09:27:54.979Z,1.87
2018-08-11T09:30:23.135Z,1.67
2018-08-11T09:32:51.271Z,2.00
2018-08-11T09:35:19.399Z,1.60
2018-08-11T09:37:47.617Z,2.03
2018-08-11T09:40:15.719Z,2.10
2018-08-11T09:42:43.894Z,1.77
2018-08-11T09:45:12.081Z,1.80
2018-08-11T09:47:40.173Z,2.13
2018-08-11T09:50:08.266Z,1.70
2018-08-11T09:52:36.459Z,1.90
2018-08-11T09:55:04.676Z,1.60
2018-08-11T09:57:39.461Z,1.80
2018-08-11T10:00:08.726Z,2.10
2018-08-11T10:02:36.880Z,2.37
2018-08-11T10:05:05.670Z,1.93
2018-08-11T10:07:33.905Z,2.30
2018-08-11T10:10:02.063Z,1.60
2018-08-11T10:12:30.186Z,2.07
2018-08-11T10:14:58.338Z,2.00
2018-08-11T10:17:26.431Z,2.03
2018-08-11T10:19:55.158Z,2.33
2018-08-11T10:22:23.412Z,3.10
2018-08-11T10:24:51.570Z,2.20
2018-08-11T10:27:19.676Z,1.70
2018-08-11T10:29:47.885Z,1.97
2018-08-11T10:32:15.960Z,1.97
2018-08-11T10:34:44.033Z,2.13
2018-08-11T10:37:12.136Z,2.30
2018-08-11T10:39:40.947Z,2.03
2018-08-11T10:42:09.027Z,1.93
2018-08-11T10:44:37.132Z,1.70
2018-08-11T10:47:05.295Z,1.60
2018-08-11T10:49:33.339Z,1.70
2018-08-11T10:52:01.452Z,1.60
2018-08-11T10:54:29.546Z,1.40
2018-08-11T10:56:57.599Z,1.87
2018-08-11T10:59:25.699Z,1.63
2018-08-11T11:01:53.956Z,1.20
2018-08-11T11:04:22.055Z,1.30
2018-08-11T11:06:50.186Z,1.40
2018-08-11T11:09:18.439Z,1.63
2018-08-11T11:11:46.486Z,1.80
2018-08-11T11:14:14.616Z,1.50
2018-08-11T11:16:42.741Z,1.30
2018-08-11T11:19:10.887Z,1.20
2018-08-11T11:21:38.995Z,1.27
2018-08-11T11:24:07.137Z,1.37
2018-08-11T11:26:35.236Z,1.30
2018-08-11T11:29:03.368Z,1.00
2018-08-11T11:31:31.469Z,1.20
2018-08-11T11:33:59.645Z,1.13
2018-08-11T11:36:27.765Z,1.20
2018-08-11T11:38:55.911Z,1.13
2018-08-11T11:41:23.974Z,1.53
2018-08-11T11:43:52.602Z,1.10
2018-08-11T11:46:20.711Z,1.07
2018-08-11T11:48:48.782Z,1.17
2018-08-11T11:51:17.399Z,0.97
2018-08-11T11:53:45.757Z,0.80
2018-08-11T11:56:14.297Z,1.10
2018-08-11T11:58:42.402Z,1.10
2018-08-11T12:01:11.014Z,1.10
2018-08-11T12:03:39.172Z,1.10
2018-08-11T12:06:07.509Z,1.20
2018-08-11T12:08:36.219Z,1.20
2018-08-11T12:11:04.719Z,1.20
2018-08-11T12:13:32.998Z,1.07
2018-08-11T12:16:01.464Z,1.10
2018-08-11T12:18:30.046Z,1.20
2018-08-11T12:20:58.163Z,1.20
2018-08-11T12:23:26.640Z,1.10
2018-08-11T12:25:55.437Z,1.07
2018-08-11T12:28:23.902Z,1.30
2018-08-11T12:30:52.015Z,1.10
2018-08-11T12:33:20.170Z,1.40
2018-08-11T12:35:48.304Z,1.10
2018-08-11T12:38:16.379Z,1.23
2018-08-11T12:40:44.756Z,1.30
2018-08-11T12:43:12.861Z,1.10
2018-08-11T12:45:40.978Z,1.30
2018-08-11T12:48:09.117Z,1.20
2018-08-11T12:50:37.214Z,1.20
2018-08-11T12:53:05.351Z,1.10
2018-08-11T12:55:33.462Z,1.40
2018-08-11T12:58:01.587Z,1.37
2018-08-11T13:00:29.699Z,1.40
2018-08-11T13:02:58.091Z,1.40
2018-08-11T13:05:26.243Z,1.13
2018-08-11T13:07:54.355Z,1.20
2018-08-11T13:10:22.594Z,1.40
2018-08-11T13:12:50.664Z,1.20
2018-08-11T13:15:18.829Z,1.17
2018-08-11T13:17:46.923Z,1.17
2018-08-11T13:20:15.027Z,1.43
2018-08-11T13:22:43.096Z,1.00
2018-08-11T13:25:11.181Z,1.20
2018-08-11T13:27:39.255Z,1.27
2018-08-11T13:30:08.047Z,1.40
2018-08-11T13:32:36.136Z,1.20
2018-08-11T13:35:04.263Z,1.10
2018-08-11T13:37:32.402Z,1.20
2018-08-11T13:40:00.884Z,6.67
2018-08-11T13:42:28.946Z,1.10
2018-08-11T13:44:57.058Z,1.37
2018-08-11T13:47:25.139Z,1.30
2018-08-11T13:49:53.292Z,1.33
2018-08-11T13:52:21.354Z,1.20
2018-08-11T13:54:49.469Z,1.60
2018-08-11T13:57:17.559Z,1.17
2018-08-11T13:59:45.714Z,1.47
2018-08-11T14:02:13.807Z,1.03
2018-08-11T14:04:41.922Z,1.33
2018-08-11T14:07:10.177Z,1.40
2018-08-11T14:09:38.264Z,1.37
2018-08-11T14:12:06.384Z,1.10
2018-08-11T14:14:34.482Z,1.20
2018-08-11T14:17:02.627Z,1.00
2018-08-11T14:19:30.860Z,1.50
2018-08-11T14:21:59.051Z,1.30
2018-08-11T14:24:27.155Z,1.30
2018-08-11T14:26:55.272Z,1.13
2018-08-11T14:29:23.435Z,1.40
2018-08-11T14:31:51.570Z,1.47
2018-08-11T14:34:19.862Z,1.73
2018-08-11T14:36:47.939Z,1.40
2018-08-11T14:39:16.038Z,1.20
2018-08-11T14:41:44.134Z,1.47
2018-08-11T14:44:12.206Z,1.33
2018-08-11T14:46:40.319Z,1.50
2018-08-11T14:49:08.431Z,1.50
2018-08-11T14:51:36.853Z,1.70
2018-08-11T14:54:05.035Z,1.70
2018-08-11T14:56:33.177Z,1.43
2018-08-11T14:59:01.351Z,1.57
2018-08-11T15:01:29.762Z,1.50
2018-08-11T15:03:57.881Z,1.40
2018-08-11T15:06:26.034Z,1.50
2018-08-11T15:08:54.130Z,1.13
2018-08-11T15:11:22.705Z,1.47
2018-08-11T15:13:50.856Z,1.40
2018-08-11T15:16:18.985Z,1.30
2018-08-11T15:18:47.520Z,1.30
2018-08-11T15:21:15.721Z,1.57
2018-08-11T15:23:45.271Z,1.30
2018-08-11T15:26:13.956Z,1.40
2018-08-11T15:28:42.149Z,1.33
2018-08-11T15:31:10.295Z,1.43
2018-08-11T15:33:38.671Z,1.60
2018-08-11T15:36:07.567Z,1.50
2018-08-11T15:38:35.832Z,1.40
2018-08-11T15:41:05.090Z,1.50
2018-08-11T15:43:33.259Z,1.43
2018-08-11T15:46:01.435Z,1.50
2018-08-11T15:48:29.557Z,1.30
2018-08-11T15:50:57.767Z,1.30
2018-08-11T15:53:25.895Z,1.53
2018-08-11T15:55:54.005Z,1.53
2018-08-11T15:58:22.111Z,1.40
2018-08-11T16:00:50.186Z,1.40
2018-08-11T16:03:18.345Z,1.40
2018-08-11T16:05:46.470Z,1.63
2018-08-11T16:08:14.663Z,2.27
2018-08-11T16:10:42.769Z,1.50
2018-08-11T16:13:10.964Z,1.53
2018-08-11T16:15:39.083Z,1.30
2018-08-11T16:18:07.195Z,1.60
2018-08-11T16:20:35.303Z,1.40
2018-08-11T16:23:03.486Z,1.50
2018-08-11T16:25:31.589Z,1.40
2018-08-11T16:27:59.673Z,1.50
2018-08-11T16:30:27.812Z,2.00
2018-08-11T16:32:55.897Z,1.57
2018-08-11T16:35:23.991Z,1.57
2018-08-11T16:37:52.271Z,1.33
2018-08-11T16:40:20.414Z,1.60
2018-08-11T16:42:48.594Z,1.50
2018-08-11T16:45:16.704Z,1.77
2018-08-11T16:47:44.871Z,1.67
2018-08-11T16:50:12.992Z,1.67
2018-08-11T16:52:41.094Z,1.40
2018-08-11T16:55:09.228Z,1.60
2018-08-11T16:57:37.342Z,1.53
2018-08-11T17:00:08.119Z,1.47
2018-08-11T17:02:36.198Z,1.63
2018-08-11T17:05:04.675Z,1.60
2018-08-11T17:07:32.811Z,2.10
2018-08-11T17:10:01.272Z,2.80
2018-08-11T17:12:29.378Z,2.17
2018-08-11T17:14:57.980Z,3.70
2018-08-11T17:17:26.116Z,2.30
2018-08-11T17:19:54.277Z,1.70
2018-08-11T17:22:22.393Z,1.60
2018-08-11T17:24:50.609Z,2.00
2018-08-11T17:27:18.787Z,1.67
2018-08-11T17:29:47.002Z,1.73
2018-08-11T17:32:15.562Z,1.67
2018-08-11T17:34:43.699Z,1.63
2018-08-11T17:37:11.809Z,1.57
2018-08-11T17:39:39.958Z,1.90
2018-08-11T17:42:08.406Z,1.70
2018-08-11T17:44:36.537Z,1.60
2018-08-11T17:47:04.614Z,1.50
2018-08-11T17:49:32.749Z,1.53
2018-08-11T17:52:00.962Z,1.60
2018-08-11T17:54:29.048Z,1.83
2018-08-11T17:56:57.194Z,1.67
2018-08-11T17:59:25.287Z,1.60
2018-08-11T18:01:53.380Z,1.30
2018-08-11T18:04:21.786Z,1.63
2018-08-11T18:06:49.941Z,1.67
2018-08-11T18:09:18.105Z,1.57
2018-08-11T18:11:46.206Z,1.70
2018-08-11T18:14:14.350Z,1.33
2018-08-11T18:16:42.441Z,1.37
2018-08-11T18:19:10.611Z,1.37
2018-08-11T18:21:38.704Z,1.60
2018-08-11T18:24:07.052Z,1.37
2018-08-11T18:26:35.182Z,1.33
2018-08-11T18:29:03.281Z,1.30
2018-08-11T18:31:31.379Z,1.30
2018-08-11T18:33:59.502Z,1.20
2018-08-11T18:36:27.615Z,1.30
2018-08-11T18:38:55.715Z,1.60
2018-08-11T18:41:23.855Z,1.67
2018-08-11T18:43:51.952Z,1.20
2018-08-11T18:46:20.053Z,1.70
2018-08-11T18:48:48.273Z,1.40
2018-08-11T18:51:16.361Z,1.30
2018-08-11T18:53:44.481Z,1.40
2018-08-11T18:56:12.657Z,1.20
2018-08-11T18:58:40.825Z,1.20
2018-08-11T19:01:08.996Z,1.30
2018-08-11T19:03:37.082Z,1.40
2018-08-11T19:06:05.180Z,1.30
2018-08-11T19:08:33.278Z,1.40
2018-08-11T19:11:01.425Z,1.30
2018-08-11T19:13:29.543Z,1.20
2018-08-11T19:15:57.669Z,1.40
2018-08-11T19:18:25.807Z,1.40
2018-08-11T19:20:54.099Z,1.23
2018-08-11T19:23:22.266Z,1.20
2018-08-11T19:25:50.363Z,1.27
2018-08-11T19:28:18.437Z,1.20
2018-08-11T19:30:46.584Z,1.10
2018-08-11T19:33:14.684Z,1.30
2018-08-11T19:35:42.803Z,1.40
2018-08-11T19:38:10.911Z,1.20
2018-08-11T19:40:39.029Z,1.40
2018-08-11T19:43:07.089Z,0.90
2018-08-11T19:45:35.230Z,1.17
2018-08-11T19:48:03.305Z,1.37
2018-08-11T19:50:31.400Z,1.30
2018-08-11T19:52:59.497Z,1.23
2018-08-11T19:55:27.652Z,1.20
2018-08-11T19:57:55.729Z,1.33
2018-08-11T20:00:23.944Z,1.40
2018-08-11T20:02:52.010Z,1.00
2018-08-11T20:05:20.171Z,0.80
2018-08-11T20:07:48.330Z,1.20
2018-08-11T20:10:16.463Z,1.30
2018-08-11T20:12:44.600Z,1.00
2018-08-11T20:15:12.707Z,1.30
2018-08-11T20:17:40.827Z,1.30
2018-08-11T20:20:10.071Z,1.20
2018-08-11T20:22:38.128Z,1.40
2018-08-11T20:25:06.376Z,1.23
2018-08-11T20:27:34.426Z,1.30
2018-08-11T20:30:02.566Z,1.50
2018-08-11T20:32:30.712Z,1.67
2018-08-11T20:34:58.831Z,1.80
2018-08-11T20:37:26.911Z,1.20
2018-08-11T20:39:55.004Z,1.40
2018-08-11T20:42:23.088Z,1.60
2018-08-11T20:44:51.188Z,1.47
2018-08-11T20:47:19.376Z,1.60
2018-08-11T20:49:47.447Z,1.40
2018-08-11T20:52:15.549Z,1.60
2018-08-11T20:54:43.650Z,1.60
2018-08-11T20:57:11.889Z,1.30
2018-08-11T20:59:40.032Z,1.80
2018-08-11T21:02:08.137Z,1.37
2018-08-11T21:04:36.269Z,1.33
2018-08-11T21:07:04.436Z,1.20
2018-08-11T21:09:32.519Z,1.80
2018-08-11T21:12:00.628Z,1.37
2018-08-11T21:14:28.751Z,1.60
2018-08-11T21:16:56.974Z,1.30
2018-08-11T21:19:25.112Z,1.10
2018-08-11T21:21:53.209Z,1.10
2018-08-11T21:24:21.339Z,1.23
2018-08-11T21:26:49.485Z,1.20
2018-08-11T21:29:17.577Z,1.30
2018-08-11T21:31:45.652Z,1.27
2018-08-11T21:34:13.800Z,1.20
2018-08-11T21:36:41.898Z,1.40
2018-08-11T21:39:11.790Z,1.53
2018-08-11T21:41:39.901Z,1.30
2018-08-11T21:44:08.012Z,1.33
2018-08-11T21:46:36.386Z,1.50
2018-08-11T21:49:04.548Z,1.27
2018-08-11T21:51:32.673Z,1.40
2018-08-11T21:54:00.808Z,1.20
2018-08-11T21:56:28.986Z,1.20
2018-08-11T21:58:57.089Z,1.27
2018-08-11T22:01:25.221Z,1.10
2018-08-11T22:03:53.489Z,1.40
2018-08-11T22:06:21.561Z,1.10
2018-08-11T22:08:49.637Z,1.60
2018-08-11T22:11:17.729Z,1.20
2018-08-11T22:13:45.834Z,1.30
2018-08-11T22:16:13.950Z,1.00
2018-08-11T22:18:42.075Z,1.13
2018-08-11T22:21:10.196Z,1.23
2018-08-11T22:23:38.275Z,1.30
2018-08-11T22:26:06.395Z,1.30
2018-08-11T22:28:34.467Z,1.40
2018-08-11T22:31:02.580Z,1.50
2018-08-11T22:33:30.685Z,1.40
2018-08-11T22:35:58.796Z,1.30
2018-08-11T22:38:26.916Z,1.50
2018-08-11T22:40:55.048Z,1.40
2018-08-11T22:43:23.118Z,1.33
2018-08-11T22:45:51.286Z,1.50
2018-08-11T22:48:19.387Z,1.20
2018-08-11T22:50:47.503Z,1.70
2018-08-11T22:53:15.643Z,1.17
2018-08-11T22:55:43.847Z,1.30
2018-08-11T22:58:12.022Z,1.30
2018-08-11T23:00:40.102Z,1.20
2018-08-11T23:03:08.275Z,1.30
2018-08-11T23:05:36.338Z,1.30
2018-08-11T23:08:04.485Z,1.30
2018-08-11T23:10:32.649Z,1.30
2018-08-11T23:13:00.744Z,1.10
2018-08-11T23:15:28.819Z,1.30
2018-08-11T23:17:56.973Z,1.20
2018-08-11T23:20:25.064Z,1.30
2018-08-11T23:22:53.198Z,1.30
2018-08-11T23:25:21.353Z,1.10
2018-08-11T23:27:49.454Z,1.33
2018-08-11T23:30:18.140Z,1.20
2018-08-11T23:32:46.314Z,1.30
2018-08-11T23:35:14.654Z,1.20
2018-08-11T23:37:43.236Z,1.50
2018-08-11T23:40:11.574Z,1.60
2018-08-11T23:42:39.656Z,1.37
2018-08-11T23:45:12.022Z,1.20
2018-08-11T23:47:40.564Z,1.30
2018-08-11T23:50:09.443Z,1.30
2018-08-11T23:52:37.673Z,1.33
2018-08-11T23:55:06.256Z,1.40
2018-08-11T23:57:34.605Z,1.47
